createdAt,value
2023-03-25T00:01:55.569Z,18.70
2023-03-25T00:04:43.388Z,18.80
2023-03-25T00:07:31.650Z,18.70
2023-03-25T00:10:20.037Z,18.50
2023-03-25T00:13:08.601Z,18.60
2023-03-25T00:15:59.161Z,18.40
2023-03-25T00:18:48.184Z,18.80
2023-03-25T00:21:35.848Z,18.50
2023-03-25T00:24:23.406Z,18.30
2023-03-25T00:27:11.084Z,18.60
2023-03-25T00:29:58.628Z,18.70
2023-03-25T00:32:50.207Z,18.20
2023-03-25T00:35:39.712Z,18.60
2023-03-25T00:38:38.203Z,18.60
2023-03-25T00:41:27.137Z,18.60
2023-03-25T00:44:17.364Z,18.60
2023-03-25T00:47:04.888Z,18.60
2023-03-25T00:49:52.781Z,18.30
2023-03-25T00:52:40.752Z,18.60
2023-03-25T00:55:28.332Z,18.60
2023-03-25T00:58:15.826Z,18.60
2023-03-25T01:01:14.279Z,18.50
2023-03-25T01:04:01.803Z,18.60
2023-03-25T01:06:52.082Z,18.60
2023-03-25T01:09:42.206Z,18.70
2023-03-25T01:12:29.749Z,18.70
2023-03-25T01:15:17.287Z,18.70
2023-03-25T01:18:05.333Z,18.70
2023-03-25T01:20:52.832Z,18.50
2023-03-25T01:23:40.666Z,18.10
2023-03-25T01:26:28.159Z,18.30
2023-03-25T01:29:19.237Z,18.40
2023-03-25T01:32:06.921Z,18.60
2023-03-25T01:34:54.485Z,18.60
2023-03-25T01:37:44.268Z,18.70
2023-03-25T01:40:31.766Z,18.40
2023-03-25T01:43:20.257Z,18.40
2023-03-25T01:46:17.300Z,18.70
2023-03-25T01:49:10.044Z,18.60
2023-03-25T01:52:05.691Z,18.50
2023-03-25T01:54:57.213Z,18.70
2023-03-25T01:57:46.448Z,18.40
2023-03-25T02:00:34.471Z,18.40
2023-03-25T02:03:24.761Z,18.20
2023-03-25T02:06:26.662Z,18.10
2023-03-25T02:09:19.794Z,18.00
2023-03-25T02:12:07.417Z,18.10
2023-03-25T02:14:57.582Z,18.10
2023-03-25T02:18:19.284Z,18.10
2023-03-25T02:21:28.668Z,18.00
2023-03-25T02:24:54.298Z,17.90
2023-03-25T02:28:01.973Z,17.80
2023-03-25T02:31:02.059Z,17.80
2023-03-25T02:34:33.588Z,17.80
2023-03-25T02:37:37.172Z,17.90
2023-03-25T02:41:04.961Z,17.90
2023-03-25T02:44:07.893Z,17.90
2023-03-25T02:47:03.095Z,17.90
2023-03-25T02:50:01.180Z,17.90
2023-03-25T02:52:55.839Z,17.90
2023-03-25T02:55:48.148Z,17.90
2023-03-25T02:58:36.443Z,17.90
2023-03-25T03:01:26.973Z,17.90
2023-03-25T03:04:14.659Z,17.90
2023-03-25T03:07:02.288Z,17.90
2023-03-25T03:10:33.848Z,17.90
2023-03-25T03:13:45.556Z,17.80
2023-03-25T03:17:11.514Z,17.80
2023-03-25T03:20:15.325Z,17.70
2023-03-25T03:23:21.054Z,17.70
2023-03-25T03:26:42.045Z,17.60
2023-03-25T03:29:51.159Z,17.40
2023-03-25T03:33:01.318Z,17.40
2023-03-25T03:35:58.792Z,17.30
2023-03-25T03:38:54.601Z,17.30
2023-03-25T03:41:47.706Z,17.10
2023-03-25T03:44:40.188Z,17.00
2023-03-25T03:47:36.952Z,17.00
2023-03-25T03:50:36.750Z,16.90
2023-03-25T03:53:34.746Z,16.90
2023-03-25T03:56:41.402Z,16.90
2023-03-25T04:00:08.280Z,16.90
2023-03-25T04:03:19.136Z,17.00
2023-03-25T04:06:42.272Z,16.90
2023-03-25T04:09:41.161Z,16.90
2023-03-25T04:12:37.703Z,16.90
2023-03-25T04:15:25.678Z,16.90
2023-03-25T04:18:13.471Z,16.90
2023-03-25T04:21:01.997Z,16.90
2023-03-25T04:23:50.224Z,16.90
2023-03-25T04:26:38.462Z,16.90
2023-03-25T04:29:26.348Z,16.90
2023-03-25T04:32:14.971Z,16.90
2023-03-25T04:35:02.635Z,16.80
2023-03-25T04:37:53.819Z,16.70
2023-03-25T04:40:41.356Z,16.70
2023-03-25T04:43:28.870Z,16.60
2023-03-25T04:46:18.494Z,16.50
2023-03-25T04:49:14.262Z,16.50
2023-03-25T04:52:04.408Z,16.40
2023-03-25T04:54:51.963Z,16.30
2023-03-25T04:57:39.456Z,16.20
2023-03-25T05:00:27.372Z,16.10
2023-03-25T05:03:16.025Z,16.10
2023-03-25T05:06:03.609Z,16.30
2023-03-25T05:08:51.190Z,16.30
2023-03-25T05:11:39.977Z,16.30
2023-03-25T05:14:27.588Z,16.30
2023-03-25T05:17:15.496Z,16.50
2023-03-25T05:20:11.738Z,16.50
2023-03-25T05:22:59.290Z,16.70
2023-03-25T05:25:51.104Z,16.70
2023-03-25T05:28:41.510Z,17.00
2023-03-25T05:31:29.888Z,17.00
2023-03-25T05:34:17.775Z,17.10
2023-03-25T05:37:05.734Z,16.90
2023-03-25T05:39:53.288Z,17.20
2023-03-25T05:42:49.196Z,17.30
2023-03-25T05:45:37.302Z,17.50
2023-03-25T05:48:24.778Z,17.50
2023-03-25T05:51:16.875Z,17.70
2023-03-25T05:54:10.907Z,17.80
2023-03-25T05:56:59.141Z,17.90
2023-03-25T05:59:46.732Z,17.90
2023-03-25T06:02:38.963Z,17.70
2023-03-25T06:05:26.774Z,17.70
2023-03-25T06:08:14.339Z,17.80
2023-03-25T06:11:01.792Z,17.70
2023-03-25T06:13:52.354Z,17.60
2023-03-25T06:16:39.922Z,17.80
2023-03-25T06:19:27.557Z,17.90
2023-03-25T06:22:15.680Z,18.10
2023-03-25T06:25:04.451Z,18.00
2023-03-25T06:27:52.059Z,18.20
2023-03-25T06:30:39.572Z,18.30
2023-03-25T06:33:42.402Z,18.40
2023-03-25T06:36:31.810Z,18.40
2023-03-25T06:39:19.510Z,18.40
2023-03-25T06:42:07.542Z,18.10
2023-03-25T06:44:55.946Z,18.10
2023-03-25T06:47:43.631Z,18.40
2023-03-25T06:50:31.971Z,18.30
2023-03-25T06:53:19.559Z,18.30
2023-03-25T06:56:07.751Z,18.40
2023-03-25T06:58:55.374Z,18.70
2023-03-25T07:01:43.241Z,19.00
2023-03-25T07:04:33.106Z,18.70
2023-03-25T07:07:20.613Z,19.20
2023-03-25T07:10:08.742Z,19.10
2023-03-25T07:12:56.327Z,19.50
2023-03-25T07:15:43.921Z,19.40
2023-03-25T07:18:31.616Z,19.30
2023-03-25T07:21:19.777Z,19.10
2023-03-25T07:24:07.921Z,19.00
2023-03-25T07:26:55.391Z,19.30
2023-03-25T07:29:42.941Z,19.30
2023-03-25T07:32:30.454Z,19.00
2023-03-25T07:35:18.153Z,18.40
2023-03-25T07:38:05.778Z,18.50
2023-03-25T07:40:53.318Z,18.70
2023-03-25T07:43:41.221Z,18.30
2023-03-25T07:46:29.075Z,18.80
2023-03-25T07:49:17.758Z,18.90
2023-03-25T07:52:05.347Z,18.80
2023-03-25T07:54:52.954Z,19.30
2023-03-25T07:57:43.807Z,19.10
2023-03-25T08:00:31.352Z,19.40
2023-03-25T08:03:18.997Z,19.20
2023-03-25T08:06:08.185Z,18.90
2023-03-25T08:08:55.999Z,18.60
2023-03-25T08:11:43.598Z,18.90
2023-03-25T08:14:31.515Z,18.60
2023-03-25T08:17:19.004Z,19.50
2023-03-25T08:20:09.028Z,18.90
2023-03-25T08:22:58.571Z,18.80
2023-03-25T08:25:53.813Z,18.60
2023-03-25T08:28:41.629Z,19.10
2023-03-25T08:31:32.681Z,19.40
2023-03-25T08:34:22.972Z,19.90
2023-03-25T08:37:16.856Z,20.10
2023-03-25T08:40:11.402Z,19.80
2023-03-25T08:42:59.300Z,20.30
2023-03-25T08:45:46.890Z,19.70
2023-03-25T08:48:34.532Z,19.70
2023-03-25T08:51:22.717Z,19.70
2023-03-25T08:54:10.485Z,19.80
2023-03-25T08:56:58.145Z,18.90
2023-03-25T08:59:45.734Z,19.10
2023-03-25T09:02:33.332Z,19.60
2023-03-25T09:05:20.926Z,19.70
2023-03-25T09:08:09.768Z,20.10
2023-03-25T09:10:57.304Z,20.60
2023-03-25T09:13:45.006Z,20.50
2023-03-25T09:16:34.454Z,19.60
2023-03-25T09:19:22.148Z,20.30
2023-03-25T09:22:09.764Z,20.10
2023-03-25T09:24:57.453Z,19.60
2023-03-25T09:27:45.542Z,19.60
2023-03-25T09:30:33.190Z,19.40
2023-03-25T09:33:20.978Z,20.00
2023-03-25T09:36:08.769Z,19.70
2023-03-25T09:38:56.339Z,19.90
2023-03-25T09:42:05.438Z,20.50
2023-03-25T09:45:22.090Z,20.70
2023-03-25T09:48:30.884Z,20.60
2023-03-25T09:51:38.791Z,20.30
2023-03-25T09:54:43.171Z,20.20
2023-03-25T09:57:33.599Z,20.60
2023-03-25T10:00:25.604Z,21.10
2023-03-25T10:03:37.689Z,21.80
2023-03-25T10:06:26.512Z,22.30
2023-03-25T10:09:54.396Z,22.80
2023-03-25T10:12:44.736Z,22.60
2023-03-25T10:16:00.170Z,22.90
2023-03-25T10:18:59.692Z,22.30
2023-03-25T10:22:07.689Z,22.00
2023-03-25T10:25:09.952Z,21.90
2023-03-25T10:28:01.328Z,21.90
2023-03-25T10:30:53.925Z,21.90
2023-03-25T10:33:53.154Z,21.80
2023-03-25T10:36:57.831Z,21.90
2023-03-25T10:39:47.478Z,22.30
2023-03-25T10:42:48.472Z,22.20
2023-03-25T10:45:36.814Z,22.20
2023-03-25T10:48:31.278Z,22.60
2023-03-25T10:51:26.583Z,22.20
2023-03-25T10:54:17.331Z,22.40
2023-03-25T10:57:11.114Z,22.60
2023-03-25T11:00:12.874Z,22.30
2023-03-25T11:03:02.323Z,22.40
2023-03-25T11:05:50.273Z,22.60
2023-03-25T11:08:39.993Z,22.10
2023-03-25T11:11:35.942Z,21.70
2023-03-25T11:14:28.532Z,21.10
2023-03-25T11:17:21.175Z,21.10
2023-03-25T11:20:21.614Z,21.10
2023-03-25T11:23:25.654Z,21.20
2023-03-25T11:26:20.680Z,21.80
2023-03-25T11:29:14.446Z,21.90
2023-03-25T11:32:16.985Z,23.10
2023-03-25T11:35:29.975Z,22.90
2023-03-25T11:38:23.567Z,23.50
2023-03-25T11:41:14.795Z,23.90
2023-03-25T11:44:06.030Z,23.60
2023-03-25T11:47:07.998Z,23.20
2023-03-25T11:49:56.106Z,23.30
2023-03-25T11:52:47.171Z,22.20
2023-03-25T11:55:55.708Z,22.40
2023-03-25T11:58:43.621Z,22.40
2023-03-25T12:02:03.095Z,22.50
2023-03-25T12:05:16.710Z,22.40
2023-03-25T12:08:17.505Z,21.70
2023-03-25T12:11:17.160Z,21.80
2023-03-25T12:14:28.300Z,21.30
2023-03-25T12:17:33.604Z,21.80
2023-03-25T12:20:32.364Z,22.00
2023-03-25T12:23:51.962Z,22.90
2023-03-25T12:27:28.595Z,23.20
2023-03-25T12:30:46.412Z,22.60
2023-03-25T12:34:19.025Z,23.10
2023-03-25T12:37:39.724Z,23.50
2023-03-25T12:40:44.799Z,23.50
2023-03-25T12:44:12.755Z,23.20
2023-03-25T12:47:41.893Z,23.90
2023-03-25T12:50:38.311Z,24.60
2023-03-25T12:54:14.538Z,24.10
2023-03-25T12:57:11.251Z,22.50
2023-03-25T13:00:14.390Z,22.10
2023-03-25T13:03:43.151Z,21.60
2023-03-25T13:06:59.348Z,22.10
2023-03-25T13:10:02.079Z,22.00
2023-03-25T13:12:57.172Z,21.70
2023-03-25T13:15:57.613Z,22.10
2023-03-25T13:19:10.751Z,22.10
2023-03-25T13:22:05.967Z,22.00
2023-03-25T13:25:05.401Z,22.00
2023-03-25T13:27:58.021Z,22.40
2023-03-25T13:30:49.737Z,22.50
2023-03-25T13:33:45.828Z,23.10
2023-03-25T13:36:42.905Z,23.20
2023-03-25T13:40:13.570Z,23.20
2023-03-25T13:43:13.475Z,22.80
2023-03-25T13:46:15.881Z,22.90
2023-03-25T13:49:32.625Z,22.20
2023-03-25T13:52:21.094Z,22.40
2023-03-25T13:55:21.329Z,21.80
2023-03-25T13:58:47.098Z,21.30
2023-03-25T14:01:53.543Z,20.10
2023-03-25T14:05:13.653Z,19.50
2023-03-25T14:09:06.424Z,19.80
2023-03-25T14:12:25.590Z,20.00
2023-03-25T14:15:59.129Z,19.90
2023-03-25T14:18:56.626Z,20.20
2023-03-25T14:21:50.205Z,20.40
2023-03-25T14:24:38.631Z,20.90
2023-03-25T14:27:37.679Z,21.10
2023-03-25T14:30:31.270Z,20.70
2023-03-25T14:33:19.768Z,20.80
2023-03-25T14:36:07.832Z,20.70
2023-03-25T14:38:57.818Z,20.80
2023-03-25T14:42:08.548Z,20.90
2023-03-25T14:45:38.717Z,21.00
2023-03-25T14:48:54.579Z,21.80
2023-03-25T14:51:48.960Z,21.60
2023-03-25T14:54:36.809Z,22.30
2023-03-25T14:57:29.758Z,22.40
2023-03-25T15:00:34.601Z,21.00
2023-03-25T15:03:33.948Z,21.10
2023-03-25T15:06:35.148Z,20.70
2023-03-25T15:09:23.568Z,20.30
2023-03-25T15:12:19.432Z,21.20
2023-03-25T15:15:53.994Z,21.40
2023-03-25T15:19:13.670Z,21.20
2023-03-25T15:22:01.531Z,21.80
2023-03-25T15:24:56.714Z,22.10
2023-03-25T15:27:57.124Z,21.00
2023-03-25T15:31:20.413Z,20.00
2023-03-25T15:34:28.228Z,19.30
2023-03-25T15:37:51.206Z,18.80
2023-03-25T15:41:17.426Z,17.90
2023-03-25T15:44:47.821Z,17.40
2023-03-25T15:48:00.689Z,17.50
2023-03-25T15:51:54.942Z,17.20
2023-03-25T15:55:09.420Z,17.00
2023-03-25T15:58:04.894Z,17.40
2023-03-25T16:01:00.158Z,17.10
2023-03-25T16:04:20.900Z,15.90
2023-03-25T16:07:14.466Z,16.00
2023-03-25T16:10:38.369Z,15.10
2023-03-25T16:13:25.875Z,14.90
2023-03-25T16:16:17.411Z,14.30
2023-03-25T16:19:11.852Z,14.80
2023-03-25T16:22:08.466Z,14.70
2023-03-25T16:25:14.284Z,14.40
2023-03-25T16:28:05.176Z,14.00
2023-03-25T16:30:55.348Z,14.20
2023-03-25T16:33:44.545Z,14.80
2023-03-25T16:36:32.139Z,15.50
2023-03-25T16:39:21.837Z,15.70
2023-03-25T16:42:34.479Z,15.70
2023-03-25T16:45:23.446Z,15.80
2023-03-25T16:48:25.044Z,15.70
2023-03-25T16:51:21.400Z,15.50
2023-03-25T16:54:20.833Z,15.60
2023-03-25T16:57:14.575Z,15.50
2023-03-25T17:00:18.226Z,15.90
2023-03-25T17:03:06.399Z,15.90
2023-03-25T17:06:28.394Z,15.80
2023-03-25T17:09:21.026Z,15.80
2023-03-25T17:12:16.587Z,15.80
2023-03-25T17:15:09.413Z,15.80
2023-03-25T17:18:01.433Z,15.70
2023-03-25T17:20:50.831Z,16.00
2023-03-25T17:23:41.591Z,16.00
2023-03-25T17:27:25.215Z,15.90
2023-03-25T17:30:37.129Z,15.30
2023-03-25T17:33:34.421Z,15.60
2023-03-25T17:36:22.160Z,14.60
2023-03-25T17:39:26.588Z,15.00
2023-03-25T17:42:24.876Z,14.70
2023-03-25T17:45:15.743Z,14.50
2023-03-25T17:48:03.809Z,13.80
2023-03-25T17:50:54.800Z,13.30
2023-03-25T17:53:42.321Z,13.60
2023-03-25T17:56:30.408Z,13.50
2023-03-25T17:59:21.766Z,14.00
2023-03-25T18:02:17.667Z,14.40
2023-03-25T18:05:07.358Z,14.90
2023-03-25T18:07:56.526Z,15.10
2023-03-25T18:10:44.122Z,15.20
2023-03-25T18:13:31.632Z,15.20
2023-03-25T18:16:22.210Z,15.10
2023-03-25T18:19:32.169Z,14.90
2023-03-25T18:22:20.519Z,14.50
2023-03-25T18:25:10.160Z,13.80
2023-03-25T18:27:58.181Z,13.40
2023-03-25T18:30:53.560Z,13.50
2023-03-25T18:33:42.084Z,14.20
2023-03-25T18:36:29.655Z,14.40
2023-03-25T18:39:24.313Z,14.30
2023-03-25T18:42:12.062Z,14.30
2023-03-25T18:44:59.536Z,14.40
2023-03-25T18:47:47.744Z,14.50
2023-03-25T18:50:40.460Z,14.50
2023-03-25T18:53:29.956Z,14.30
2023-03-25T18:56:19.838Z,14.00
2023-03-25T18:59:07.936Z,14.10
2023-03-25T19:01:55.478Z,14.00
2023-03-25T19:04:50.591Z,14.00
2023-03-25T19:07:49.572Z,14.10
2023-03-25T19:10:37.307Z,14.20
2023-03-25T19:13:25.003Z,14.20
2023-03-25T19:16:12.533Z,13.90
2023-03-25T19:19:00.702Z,14.20
2023-03-25T19:21:48.492Z,14.30
2023-03-25T19:24:36.130Z,14.30
2023-03-25T19:27:23.641Z,13.90
2023-03-25T19:30:16.087Z,14.20
2023-03-25T19:33:04.000Z,14.40
2023-03-25T19:35:55.489Z,14.70
2023-03-25T19:38:43.299Z,14.30
2023-03-25T19:41:31.115Z,14.10
2023-03-25T19:44:18.691Z,14.50
2023-03-25T19:47:06.261Z,14.40
2023-03-25T19:49:53.785Z,14.50
2023-03-25T19:52:43.540Z,14.40
2023-03-25T19:55:31.272Z,14.50
2023-03-25T19:58:20.500Z,14.40
2023-03-25T20:01:08.721Z,14.40
2023-03-25T20:03:56.222Z,14.30
2023-03-25T20:06:45.384Z,14.40
2023-03-25T20:09:33.037Z,14.30
2023-03-25T20:12:20.628Z,14.30
2023-03-25T20:15:10.333Z,14.30
2023-03-25T20:17:57.960Z,14.30
2023-03-25T20:20:45.591Z,14.20
2023-03-25T20:23:33.198Z,14.30
2023-03-25T20:26:20.912Z,14.10
2023-03-25T20:29:09.008Z,14.10
2023-03-25T20:31:57.306Z,14.00
2023-03-25T20:34:44.841Z,13.90
2023-03-25T20:37:32.431Z,13.80
2023-03-25T20:40:25.338Z,13.80
2023-03-25T20:43:18.483Z,13.70
2023-03-25T20:46:06.380Z,13.70
2023-03-25T20:48:54.946Z,13.60
2023-03-25T20:51:43.614Z,13.50
2023-03-25T20:54:31.662Z,13.40
2023-03-25T20:57:19.274Z,13.40
2023-03-25T21:00:08.627Z,13.40
2023-03-25T21:02:57.776Z,13.40
2023-03-25T21:05:46.888Z,13.30
2023-03-25T21:08:34.567Z,13.30
2023-03-25T21:11:22.442Z,13.20
2023-03-25T21:14:12.996Z,13.20
2023-03-25T21:17:00.658Z,13.10
2023-03-25T21:19:49.358Z,13.10
2023-03-25T21:22:45.136Z,13.00
2023-03-25T21:25:36.324Z,13.00
2023-03-25T21:28:26.047Z,12.90
2023-03-25T21:31:20.275Z,13.00
2023-03-25T21:34:07.831Z,12.80
2023-03-25T21:36:56.531Z,12.70
2023-03-25T21:39:44.184Z,12.90
2023-03-25T21:42:31.803Z,13.00
2023-03-25T21:45:19.677Z,12.90
2023-03-25T21:48:08.440Z,13.00
2023-03-25T21:50:59.130Z,12.90
2023-03-25T21:53:47.774Z,13.00
2023-03-25T21:56:35.399Z,13.00
2023-03-25T21:59:23.946Z,13.00
2023-03-25T22:02:14.367Z,13.00
2023-03-25T22:05:01.854Z,13.00
2023-03-25T22:07:49.370Z,13.00
2023-03-25T22:10:36.962Z,12.80
2023-03-25T22:13:24.466Z,12.80
2023-03-25T22:16:15.736Z,12.70
2023-03-25T22:19:04.201Z,12.60
2023-03-25T22:21:51.761Z,12.60
2023-03-25T22:24:39.626Z,12.60
2023-03-25T22:27:27.199Z,12.60
2023-03-25T22:30:15.795Z,12.60
2023-03-25T22:33:03.572Z,12.70
2023-03-25T22:35:51.604Z,12.80
2023-03-25T22:38:51.461Z,12.90
2023-03-25T22:41:39.028Z,12.90
2023-03-25T22:44:26.746Z,13.00
2023-03-25T22:47:14.321Z,13.00
2023-03-25T22:50:01.966Z,13.00
2023-03-25T22:52:49.482Z,12.90
2023-03-25T22:55:38.062Z,12.80
2023-03-25T22:58:28.814Z,12.80
2023-03-25T23:01:25.876Z,12.70
2023-03-25T23:04:14.113Z,12.60
2023-03-25T23:07:08.061Z,12.60
2023-03-25T23:09:56.401Z,12.50
2023-03-25T23:12:43.946Z,12.40
2023-03-25T23:15:31.417Z,12.40
2023-03-25T23:18:18.970Z,12.40
2023-03-25T23:21:12.079Z,12.40
2023-03-25T23:24:03.400Z,12.40
2023-03-25T23:26:50.962Z,12.40
2023-03-25T23:29:39.619Z,12.40
2023-03-25T23:32:27.646Z,12.40
2023-03-25T23:35:19.355Z,12.40
2023-03-25T23:38:06.928Z,12.30
2023-03-25T23:41:07.872Z,12.40
2023-03-25T23:43:56.162Z,12.40
2023-03-25T23:46:44.132Z,12.50
2023-03-25T23:49:33.692Z,12.60
2023-03-25T23:52:21.641Z,12.80
2023-03-25T23:55:12.639Z,13.00
2023-03-25T23:58:00.167Z,13.10
